createdAt,value
2017-12-23T00:02:14.274Z,34.57
2017-12-23T00:04:41.818Z,42.67
2017-12-23T00:07:09.559Z,49.53
2017-12-23T00:09:37.017Z,40.73
2017-12-23T00:12:05.404Z,38.23
2017-12-23T00:14:32.865Z,41.87
2017-12-23T00:17:00.312Z,27.40
2017-12-23T00:19:28.434Z,32.20
2017-12-23T00:21:56.743Z,47.23
2017-12-23T00:24:24.200Z,36.97
2017-12-23T00:26:51.671Z,39.27
2017-12-23T00:29:19.127Z,51.63
2017-12-23T00:31:47.427Z,50.27
2017-12-23T00:47:37.784Z,36.33
2017-12-23T00:50:06.063Z,45.30
2017-12-23T00:52:33.530Z,59.67
2017-12-23T00:55:01.703Z,49.93
2017-12-23T00:57:29.175Z,46.63
2017-12-23T00:59:56.638Z,51.37
2017-12-23T01:02:24.107Z,59.17
2017-12-23T01:04:51.562Z,45.70
2017-12-23T01:07:19.037Z,39.10
2017-12-23T01:09:53.395Z,60.47
2017-12-23T01:12:20.864Z,41.53
2017-12-23T01:14:48.327Z,56.10
2017-12-23T01:17:15.800Z,46.33
2017-12-23T01:19:43.258Z,56.70
2017-12-23T01:22:10.735Z,40.33
2017-12-23T01:24:38.190Z,37.83
2017-12-23T01:27:05.695Z,78.60
2017-12-23T01:29:33.918Z,38.43
2017-12-23T01:32:01.430Z,39.43
2017-12-23T01:34:29.654Z,48.63
2017-12-23T01:36:57.119Z,36.27
2017-12-23T01:39:24.579Z,39.63
2017-12-23T01:41:52.046Z,53.47
2017-12-23T01:44:19.511Z,47.27
2017-12-23T01:46:47.002Z,44.47
2017-12-23T01:49:14.460Z,71.20
2017-12-23T01:51:41.916Z,44.03
2017-12-23T01:54:09.394Z,49.40
2017-12-23T01:56:36.854Z,46.70
2017-12-23T01:59:04.332Z,46.70
2017-12-23T02:01:31.788Z,42.60
2017-12-23T02:03:59.254Z,66.27
2017-12-23T02:06:26.710Z,35.60
2017-12-23T02:08:54.181Z,45.03
2017-12-23T02:11:21.641Z,55.33
2017-12-23T02:13:49.107Z,49.67
2017-12-23T02:16:18.224Z,53.27
2017-12-23T02:18:45.782Z,53.80
2017-12-23T02:21:13.238Z,59.70
2017-12-23T02:23:40.727Z,38.20
2017-12-23T02:26:08.185Z,66.77
2017-12-23T02:28:35.675Z,60.63
2017-12-23T02:31:03.190Z,63.27
2017-12-23T02:33:30.666Z,42.93
2017-12-23T02:38:48.608Z,58.17
2017-12-23T02:41:16.050Z,61.20
2017-12-23T02:43:43.495Z,66.13
2017-12-23T02:46:11.820Z,71.47
2017-12-23T02:48:39.267Z,70.90
2017-12-23T02:51:06.703Z,62.83
2017-12-23T02:53:34.151Z,105.60
2017-12-23T02:56:01.621Z,70.93
2017-12-23T02:58:29.075Z,83.77
2017-12-23T03:00:56.551Z,70.73
2017-12-23T03:03:24.003Z,75.00
2017-12-23T03:05:51.439Z,80.73
2017-12-23T03:08:18.896Z,61.90
2017-12-23T03:10:47.118Z,55.53
2017-12-23T03:13:14.570Z,68.63
2017-12-23T03:15:42.038Z,84.60
2017-12-23T03:18:09.495Z,63.87
2017-12-23T03:20:38.580Z,63.40
2017-12-23T03:23:06.074Z,79.13
2017-12-23T03:25:33.591Z,54.80
2017-12-23T03:28:03.938Z,63.57
2017-12-23T03:30:32.845Z,58.70
2017-12-23T03:33:00.290Z,71.93
2017-12-23T03:35:28.671Z,69.37
2017-12-23T03:37:56.879Z,78.47
2017-12-23T03:40:25.130Z,81.03
2017-12-23T03:42:52.580Z,73.13
2017-12-23T03:45:20.881Z,72.07
2017-12-23T03:47:48.326Z,64.10
2017-12-23T03:50:16.511Z,56.73
2017-12-23T03:52:43.963Z,74.93
2017-12-23T03:55:11.425Z,65.43
2017-12-23T03:57:38.871Z,45.40
2017-12-23T04:00:06.311Z,46.60
2017-12-23T04:02:33.757Z,38.27
2017-12-23T04:05:01.963Z,47.60
2017-12-23T04:07:29.475Z,44.33
2017-12-23T04:10:00.436Z,43.10
2017-12-23T04:12:27.959Z,46.93
2017-12-23T04:14:55.402Z,36.73
2017-12-23T04:17:22.842Z,24.93
2017-12-23T04:19:50.290Z,41.80
2017-12-23T04:22:17.742Z,43.17
2017-12-23T04:24:45.189Z,43.00
2017-12-23T04:27:12.618Z,43.83
2017-12-23T04:29:40.884Z,12.43
2017-12-23T04:32:08.267Z,35.30
2017-12-23T04:34:35.715Z,30.57
2017-12-23T04:37:03.156Z,27.03
2017-12-23T04:39:31.364Z,34.27
2017-12-23T04:41:58.794Z,23.10
2017-12-23T04:44:26.229Z,30.67
2017-12-23T04:46:53.667Z,20.77
2017-12-23T04:49:21.116Z,30.53
2017-12-23T04:51:48.555Z,18.83
2017-12-23T04:54:15.998Z,16.17
2017-12-23T04:56:43.436Z,27.10
2017-12-23T04:59:10.882Z,23.90
2017-12-23T05:01:39.071Z,22.70
2017-12-23T05:04:06.522Z,24.00
2017-12-23T05:06:33.956Z,17.03
2017-12-23T05:09:02.163Z,22.47
2017-12-23T05:11:29.585Z,9.33
2017-12-23T05:13:57.799Z,28.57
2017-12-23T05:16:28.050Z,27.43
2017-12-23T05:18:55.569Z,14.07
2017-12-23T05:21:23.719Z,18.10
2017-12-23T05:23:51.931Z,16.40
2017-12-23T05:26:19.372Z,19.43
2017-12-23T05:28:47.473Z,17.80
2017-12-23T05:31:14.998Z,13.03
2017-12-23T05:33:42.429Z,16.83
2017-12-23T05:36:10.626Z,11.43
2017-12-23T05:38:38.066Z,21.23
2017-12-23T05:41:06.258Z,25.03
2017-12-23T05:43:33.705Z,24.43
2017-12-23T05:46:01.997Z,15.23
2017-12-23T05:48:29.442Z,21.07
2017-12-23T05:50:56.870Z,19.10
2017-12-23T05:53:25.083Z,18.10
2017-12-23T05:55:52.518Z,12.37
2017-12-23T05:58:20.721Z,13.53
2017-12-23T06:00:48.165Z,24.43
2017-12-23T06:03:15.605Z,17.17
2017-12-23T06:05:43.808Z,19.27
2017-12-23T06:08:12.021Z,25.70
2017-12-23T06:10:39.470Z,21.43
2017-12-23T06:13:07.669Z,16.77
2017-12-23T06:15:35.872Z,18.23
2017-12-23T06:18:04.108Z,8.40
2017-12-23T06:20:31.538Z,8.73
2017-12-23T06:22:59.035Z,25.37
2017-12-23T06:25:26.442Z,16.13
2017-12-23T06:27:53.874Z,22.17
2017-12-23T06:30:21.315Z,14.70
2017-12-23T06:32:48.746Z,20.23
2017-12-23T06:35:16.194Z,30.70
2017-12-23T06:37:43.628Z,13.13
2017-12-23T06:40:12.511Z,20.90
2017-12-23T06:42:39.964Z,14.67
2017-12-23T06:45:07.403Z,14.40
2017-12-23T06:47:34.835Z,16.43
2017-12-23T06:50:03.064Z,15.07
2017-12-23T06:52:30.496Z,13.30
2017-12-23T06:54:57.944Z,12.43
2017-12-23T06:57:25.380Z,11.93
2017-12-23T06:59:53.595Z,11.97
2017-12-23T07:02:21.028Z,15.50
2017-12-23T07:04:48.479Z,16.90
2017-12-23T07:07:15.906Z,14.87
2017-12-23T07:09:44.163Z,13.23
2017-12-23T07:12:11.604Z,15.07
2017-12-23T07:14:39.051Z,12.43
2017-12-23T07:17:06.492Z,19.27
2017-12-23T07:19:33.938Z,16.77
2017-12-23T07:22:01.369Z,13.30
2017-12-23T07:24:28.799Z,8.60
2017-12-23T07:26:56.234Z,12.23
2017-12-23T07:29:23.684Z,18.70
2017-12-23T07:31:51.115Z,20.60
2017-12-23T07:34:18.549Z,18.67
2017-12-23T07:36:46.761Z,9.50
2017-12-23T07:39:14.196Z,18.83
2017-12-23T07:41:42.396Z,19.20
2017-12-23T07:44:09.855Z,23.07
2017-12-23T07:46:37.298Z,19.97
2017-12-23T07:49:04.731Z,18.07
2017-12-23T07:51:32.942Z,10.63
2017-12-23T07:54:00.378Z,19.77
2017-12-23T07:56:27.810Z,16.03
2017-12-23T07:58:56.025Z,25.03
2017-12-23T08:01:23.468Z,18.03
2017-12-23T08:03:50.901Z,25.43
2017-12-23T08:06:19.110Z,30.23
2017-12-23T08:08:46.551Z,19.33
2017-12-23T08:11:14.763Z,23.40
2017-12-23T08:13:42.203Z,23.03
2017-12-23T08:16:09.648Z,20.87
2017-12-23T08:18:37.080Z,25.90
2017-12-23T08:21:05.296Z,21.73
2017-12-23T08:23:32.727Z,23.90
2017-12-23T08:26:00.180Z,18.33
2017-12-23T08:28:28.381Z,17.63
2017-12-23T08:30:55.827Z,19.53
2017-12-23T08:33:23.267Z,28.53
2017-12-23T08:35:51.476Z,26.50
2017-12-23T08:38:18.915Z,12.37
2017-12-23T08:40:46.366Z,24.20
2017-12-23T08:43:13.882Z,24.23
2017-12-23T08:45:41.327Z,24.90
2017-12-23T08:48:08.847Z,20.37
2017-12-23T08:50:37.078Z,35.13
2017-12-23T08:53:04.511Z,24.63
2017-12-23T08:55:32.047Z,36.40
2017-12-23T08:57:59.487Z,22.40
2017-12-23T09:00:26.932Z,20.40
2017-12-23T09:02:55.132Z,17.80
2017-12-23T09:05:22.578Z,30.27
2017-12-23T09:07:50.011Z,37.43
2017-12-23T09:10:18.226Z,28.83
2017-12-23T09:12:45.663Z,29.73
2017-12-23T09:15:13.116Z,23.60
2017-12-23T09:17:41.412Z,20.77
2017-12-23T09:20:08.864Z,20.43
2017-12-23T09:22:36.299Z,27.97
2017-12-23T09:25:03.752Z,22.93
2017-12-23T09:27:31.979Z,28.53
2017-12-23T09:29:59.405Z,13.60
2017-12-23T09:32:26.869Z,30.30
2017-12-23T09:34:54.290Z,18.67
2017-12-23T09:37:21.726Z,18.27
2017-12-23T09:39:49.162Z,27.87
2017-12-23T09:42:16.611Z,26.33
2017-12-23T09:44:44.042Z,29.80
2017-12-23T09:47:11.512Z,22.43
2017-12-23T09:49:38.956Z,33.33
2017-12-23T09:52:06.402Z,34.93
2017-12-23T09:54:33.842Z,43.07
2017-12-23T09:57:02.051Z,31.63
2017-12-23T09:59:29.495Z,35.00
2017-12-23T10:01:56.943Z,28.40
2017-12-23T10:04:24.374Z,32.90
2017-12-23T10:06:52.593Z,43.37
2017-12-23T10:09:20.036Z,44.63
2017-12-23T10:11:47.474Z,45.83
2017-12-23T10:14:15.691Z,30.30
2017-12-23T10:16:43.151Z,49.13
2017-12-23T10:19:10.595Z,61.53
2017-12-23T10:21:38.043Z,46.67
2017-12-23T10:24:05.755Z,49.27
2017-12-23T10:26:33.202Z,53.37
2017-12-23T10:29:00.655Z,43.80
2017-12-23T10:31:28.079Z,53.90
2017-12-23T10:33:55.517Z,32.93
2017-12-23T10:36:22.968Z,69.60
2017-12-23T10:38:51.270Z,67.33
2017-12-23T10:41:18.706Z,75.53
2017-12-23T10:43:46.151Z,65.83
2017-12-23T10:46:14.868Z,29.93
2017-12-23T10:48:42.297Z,73.97
2017-12-23T10:51:10.507Z,72.23
2017-12-23T10:53:37.946Z,48.80
2017-12-23T10:56:05.386Z,53.40
2017-12-23T10:58:33.597Z,68.70
2017-12-23T11:01:01.030Z,62.20
2017-12-23T11:03:28.527Z,53.10
2017-12-23T11:05:55.959Z,67.83
2017-12-23T11:08:24.216Z,57.20
2017-12-23T11:10:52.326Z,70.03
2017-12-23T11:13:20.054Z,72.80
2017-12-23T11:15:48.239Z,25.03
2017-12-23T11:18:16.690Z,81.17
2017-12-23T11:20:44.995Z,74.93
2017-12-23T11:23:13.341Z,73.80
2017-12-23T11:25:41.547Z,93.57
2017-12-23T11:28:09.005Z,74.80
2017-12-23T11:30:36.441Z,80.70
2017-12-23T11:33:04.659Z,43.83
2017-12-23T11:35:32.195Z,67.03
2017-12-23T11:37:59.619Z,33.77
2017-12-23T11:40:27.826Z,47.77
2017-12-23T11:42:55.263Z,15.87
2017-12-23T11:45:23.453Z,52.70
2017-12-23T11:47:50.890Z,51.97
2017-12-23T11:50:18.893Z,57.93
2017-12-23T11:52:46.336Z,34.97
2017-12-23T11:55:13.772Z,40.63
2017-12-23T11:57:41.787Z,64.47
2017-12-23T12:00:09.247Z,45.63
2017-12-23T12:02:36.701Z,43.90
2017-12-23T12:05:04.243Z,50.23
2017-12-23T12:07:31.691Z,43.37
2017-12-23T12:09:59.134Z,38.80
2017-12-23T12:12:27.364Z,46.07
2017-12-23T12:14:54.818Z,37.73
2017-12-23T12:17:22.269Z,36.10
2017-12-23T12:19:49.707Z,52.73
2017-12-23T12:22:17.162Z,41.73
2017-12-23T12:24:44.616Z,48.57
2017-12-23T12:27:12.054Z,52.43
2017-12-23T12:29:39.500Z,50.37
2017-12-23T12:32:06.941Z,49.87
2017-12-23T12:34:35.148Z,30.87
2017-12-23T12:37:02.601Z,28.97
2017-12-23T12:39:30.032Z,25.13
2017-12-23T12:41:58.238Z,20.70
2017-12-23T12:44:25.674Z,27.70
2017-12-23T12:46:53.130Z,30.77
2017-12-23T12:49:21.323Z,34.33
2017-12-23T12:51:48.775Z,35.97
2017-12-23T12:54:16.214Z,30.77
2017-12-23T12:56:43.659Z,37.00
2017-12-23T12:59:11.903Z,28.27
2017-12-23T13:01:39.353Z,29.83
2017-12-23T13:04:06.787Z,36.03
2017-12-23T13:06:34.239Z,35.30
2017-12-23T13:09:01.680Z,22.90
2017-12-23T13:11:29.114Z,48.17
2017-12-23T13:13:57.330Z,16.87
2017-12-23T13:16:24.884Z,36.20
2017-12-23T13:18:52.330Z,31.70
2017-12-23T13:21:19.767Z,25.17
2017-12-23T13:23:47.975Z,25.80
2017-12-23T13:26:15.421Z,28.13
2017-12-23T13:28:43.682Z,30.87
2017-12-23T13:31:11.135Z,37.20
2017-12-23T13:33:38.578Z,33.63
2017-12-23T13:36:06.779Z,31.40
2017-12-23T13:38:34.223Z,38.17
2017-12-23T13:41:01.664Z,26.93
2017-12-23T13:43:29.871Z,27.20
2017-12-23T13:45:57.315Z,25.50
2017-12-23T13:48:24.758Z,32.43
2017-12-23T13:50:52.196Z,31.67
2017-12-23T13:53:19.644Z,19.70
2017-12-23T13:55:47.078Z,15.77
2017-12-23T13:58:14.683Z,25.10
2017-12-23T14:00:42.923Z,33.47
2017-12-23T14:03:10.322Z,35.40
2017-12-23T14:05:38.551Z,30.90
2017-12-23T14:08:05.992Z,19.50
2017-12-23T14:10:33.459Z,24.63
2017-12-23T14:13:01.068Z,24.50
2017-12-23T14:15:30.062Z,28.20
2017-12-23T14:17:58.263Z,26.40
2017-12-23T14:20:25.710Z,22.50
2017-12-23T14:22:53.145Z,35.67
2017-12-23T14:25:21.450Z,30.47
2017-12-23T14:27:48.913Z,27.63
2017-12-23T14:30:16.356Z,26.70
2017-12-23T14:32:44.418Z,22.43
2017-12-23T14:35:12.547Z,29.97
2017-12-23T14:37:40.707Z,34.63
2017-12-23T14:40:08.218Z,30.23
2017-12-23T14:42:36.459Z,30.50
2017-12-23T14:45:03.898Z,24.17
2017-12-23T14:47:31.343Z,19.43
2017-12-23T14:49:59.453Z,25.83
2017-12-23T14:52:26.895Z,7.33
2017-12-23T14:54:54.354Z,33.97
2017-12-23T14:57:21.838Z,30.10
2017-12-23T14:59:50.139Z,25.67
2017-12-23T15:02:17.578Z,34.93
2017-12-23T15:04:45.099Z,30.17
2017-12-23T15:07:12.806Z,25.97
2017-12-23T15:09:40.496Z,25.53
2017-12-23T15:12:07.940Z,27.33
2017-12-23T15:14:35.381Z,16.97
2017-12-23T15:17:02.827Z,18.20
2017-12-23T15:19:31.027Z,27.10
2017-12-23T15:21:58.490Z,14.13
2017-12-23T15:24:25.942Z,19.43
2017-12-23T15:26:53.390Z,35.67
2017-12-23T15:29:20.823Z,27.53
2017-12-23T15:31:49.038Z,37.13
2017-12-23T15:34:16.470Z,11.00
2017-12-23T15:36:43.917Z,29.10
2017-12-23T15:39:12.114Z,33.57
2017-12-23T15:41:39.559Z,28.80
2017-12-23T15:44:06.995Z,38.40
2017-12-23T15:46:35.203Z,39.03
2017-12-23T15:49:02.663Z,31.87
2017-12-23T15:51:30.101Z,34.00
2017-12-23T15:53:57.545Z,32.90
2017-12-23T15:56:25.751Z,37.20
2017-12-23T15:58:53.204Z,46.33
2017-12-23T16:01:20.635Z,13.20
2017-12-23T16:03:48.834Z,16.20
2017-12-23T16:06:16.275Z,33.90
2017-12-23T16:08:43.715Z,33.80
2017-12-23T16:11:11.921Z,34.60
2017-12-23T16:13:39.367Z,31.13
2017-12-23T16:16:06.806Z,44.50
2017-12-23T16:18:35.023Z,28.17
2017-12-23T16:21:02.462Z,19.27
2017-12-23T16:23:29.894Z,27.77
2017-12-23T16:25:57.461Z,33.47
2017-12-23T16:28:25.002Z,34.43
2017-12-23T16:30:53.232Z,43.80
2017-12-23T16:33:20.707Z,32.77
2017-12-23T16:35:48.154Z,22.83
2017-12-23T16:38:15.602Z,41.90
2017-12-23T16:52:54.272Z,24.40
2017-12-23T16:55:21.720Z,31.17
2017-12-23T16:57:49.172Z,35.53
2017-12-23T17:00:16.612Z,33.50
2017-12-23T17:02:44.818Z,27.27
2017-12-23T17:05:13.031Z,27.00
2017-12-23T17:07:40.487Z,25.93
2017-12-23T17:10:07.932Z,26.30
2017-12-23T17:12:35.364Z,46.20
2017-12-23T17:15:03.584Z,28.53
2017-12-23T17:17:31.028Z,38.90
2017-12-23T17:19:58.486Z,43.20
2017-12-23T17:22:25.925Z,32.03
2017-12-23T17:24:54.138Z,43.50
2017-12-23T17:27:21.600Z,37.77
2017-12-23T17:30:00.888Z,38.93
2017-12-23T17:32:29.125Z,42.70
2017-12-23T17:34:56.568Z,32.30
2017-12-23T17:37:24.004Z,40.40
2017-12-23T17:39:51.448Z,47.27
2017-12-23T17:42:18.935Z,42.50
2017-12-23T17:44:46.335Z,57.43
2017-12-23T17:47:14.543Z,36.47
2017-12-23T17:49:41.996Z,44.57
2017-12-23T17:52:09.440Z,28.33
2017-12-23T17:54:36.899Z,38.00
2017-12-23T17:57:04.352Z,40.33
2017-12-23T17:59:32.572Z,40.53
2017-12-23T18:02:00.018Z,43.47
2017-12-23T18:04:27.472Z,48.30
2017-12-23T18:06:54.906Z,31.40
2017-12-23T18:09:22.355Z,30.23
2017-12-23T18:11:49.805Z,22.80
2017-12-23T18:14:18.016Z,43.93
2017-12-23T18:16:45.561Z,30.27
2017-12-23T18:19:12.999Z,30.73
2017-12-23T18:21:40.445Z,32.43
2017-12-23T18:24:08.665Z,28.90
2017-12-23T18:26:36.104Z,39.00
2017-12-23T18:29:03.551Z,46.10
2017-12-23T18:31:31.012Z,36.70
2017-12-23T18:33:58.459Z,38.17
2017-12-23T18:36:25.898Z,37.33
2017-12-23T18:38:54.111Z,36.30
2017-12-23T18:41:21.552Z,37.10
2017-12-23T18:43:49.025Z,39.00
2017-12-23T18:46:16.446Z,38.07
2017-12-23T18:48:44.660Z,29.60
2017-12-23T18:51:12.100Z,40.00
2017-12-23T18:53:39.550Z,32.80
2017-12-23T18:56:06.988Z,37.00
2017-12-23T18:58:34.452Z,33.37
2017-12-23T19:01:02.651Z,27.80
2017-12-23T19:03:30.095Z,31.70
2017-12-23T19:05:57.540Z,23.87
2017-12-23T19:08:25.018Z,28.43
2017-12-23T19:10:52.452Z,29.73
2017-12-23T19:13:19.915Z,30.60
2017-12-23T19:15:49.478Z,27.40
2017-12-23T19:18:17.039Z,36.63
2017-12-23T19:20:44.471Z,25.60
2017-12-23T19:23:11.916Z,28.67
2017-12-23T19:25:39.372Z,14.27
2017-12-23T19:28:06.807Z,37.13
2017-12-23T19:30:34.255Z,40.07
2017-12-23T19:33:01.699Z,39.43
2017-12-23T19:35:29.912Z,45.83
2017-12-23T19:37:57.355Z,40.50
2017-12-23T19:40:24.799Z,35.03
2017-12-23T19:42:52.244Z,35.37
2017-12-23T19:45:20.460Z,39.47
2017-12-23T19:47:47.902Z,47.90
2017-12-23T19:50:15.357Z,45.73
2017-12-23T19:52:42.796Z,40.17
2017-12-23T19:55:11.011Z,44.27
2017-12-23T19:57:38.453Z,22.93
2017-12-23T20:00:05.893Z,46.20
2017-12-23T20:02:33.370Z,37.03
2017-12-23T20:05:01.712Z,37.40
2017-12-23T20:07:29.918Z,29.20
2017-12-23T20:09:57.374Z,37.73
2017-12-23T20:12:24.815Z,29.20
2017-12-23T20:14:52.259Z,39.67
2017-12-23T20:17:20.471Z,50.33
2017-12-23T20:19:47.921Z,22.50
2017-12-23T20:22:15.376Z,39.90
2017-12-23T20:24:42.816Z,27.57
2017-12-23T20:27:10.254Z,30.37
2017-12-23T20:29:38.474Z,33.00
2017-12-23T20:32:05.928Z,50.83
2017-12-23T20:34:33.372Z,39.67
2017-12-23T20:37:00.807Z,42.27
2017-12-23T20:39:28.250Z,37.43
2017-12-23T20:41:56.464Z,33.27
2017-12-23T20:44:23.911Z,43.73
2017-12-23T20:46:51.348Z,36.43
2017-12-23T20:49:19.564Z,35.60
2017-12-23T20:51:47.007Z,39.77
2017-12-23T20:54:14.455Z,23.33
2017-12-23T20:56:41.892Z,29.70
2017-12-23T20:59:10.106Z,45.67
2017-12-23T21:01:37.544Z,25.07
2017-12-23T21:04:04.989Z,26.50
2017-12-23T21:06:32.446Z,18.43
2017-12-23T21:08:59.878Z,29.47
2017-12-23T21:11:28.095Z,26.97
2017-12-23T21:13:55.535Z,44.77
2017-12-23T21:16:22.986Z,22.03
2017-12-23T21:18:50.443Z,25.40
2017-12-23T21:21:18.655Z,25.73
2017-12-23T21:23:46.092Z,35.13
2017-12-23T21:26:13.539Z,32.27
2017-12-23T21:28:40.981Z,34.53
2017-12-23T21:31:09.195Z,27.63
2017-12-23T21:33:36.639Z,30.63
2017-12-23T21:36:04.100Z,36.30
2017-12-23T21:38:31.538Z,38.73
2017-12-23T21:40:58.975Z,14.90
2017-12-23T21:43:27.186Z,34.47
2017-12-23T21:45:54.637Z,40.53
2017-12-23T21:48:22.096Z,53.13
2017-12-23T21:50:49.552Z,27.97
2017-12-23T21:53:16.996Z,27.87
2017-12-23T21:55:44.447Z,43.43
2017-12-23T21:58:11.892Z,31.30
2017-12-23T22:00:40.107Z,36.47
2017-12-23T22:03:07.555Z,34.20
2017-12-23T22:05:34.994Z,38.40
2017-12-23T22:08:02.433Z,27.77
2017-12-23T22:10:30.647Z,36.23
2017-12-23T22:12:58.092Z,32.50
2017-12-23T22:15:25.535Z,21.07
2017-12-23T22:17:52.979Z,39.83
2017-12-23T22:20:21.195Z,28.53
2017-12-23T22:22:48.633Z,24.47
2017-12-23T22:25:16.084Z,40.00
2017-12-23T22:27:43.526Z,43.53
2017-12-23T22:30:11.731Z,29.90
2017-12-23T22:32:39.171Z,25.83
2017-12-23T22:35:06.624Z,36.73
2017-12-23T22:37:34.068Z,31.70
2017-12-23T22:40:02.285Z,30.80
2017-12-23T22:42:34.488Z,22.27
2017-12-23T22:45:01.948Z,30.97
2017-12-23T22:47:29.399Z,31.03
2017-12-23T22:49:56.843Z,34.37
2017-12-23T22:52:24.284Z,27.87
2017-12-23T22:54:51.731Z,35.23
2017-12-23T22:57:19.190Z,32.13
2017-12-23T22:59:46.630Z,31.70
2017-12-23T23:02:14.090Z,34.83
2017-12-23T23:04:41.519Z,27.53
2017-12-23T23:07:09.732Z,26.37
2017-12-23T23:09:37.278Z,21.97
2017-12-23T23:12:04.709Z,22.10
2017-12-23T23:14:32.906Z,21.00
2017-12-23T23:17:00.362Z,8.53
2017-12-23T23:19:27.802Z,36.83
2017-12-23T23:21:55.247Z,21.13
2017-12-23T23:24:23.448Z,33.10
2017-12-23T23:26:50.900Z,31.27
2017-12-23T23:29:18.334Z,48.83
2017-12-23T23:31:46.551Z,18.23
2017-12-23T23:34:13.992Z,24.33
2017-12-23T23:36:41.444Z,38.57
2017-12-23T23:39:08.875Z,15.90
2017-12-23T23:41:37.089Z,29.20
2017-12-23T23:44:04.526Z,29.70
2017-12-23T23:46:31.966Z,32.43
2017-12-23T23:49:00.182Z,33.70
2017-12-23T23:51:27.632Z,29.10
2017-12-23T23:53:55.059Z,25.83
2017-12-23T23:56:22.516Z,24.07
2017-12-23T23:58:50.711Z,17.67
